createdAt,value
2023-01-16T00:02:33.513Z,13.07
2023-01-16T00:07:31.061Z,14.30
2023-01-16T00:12:27.798Z,14.10
2023-01-16T00:17:24.570Z,11.18
2023-01-16T00:22:21.388Z,11.23
2023-01-16T00:27:18.927Z,11.10
2023-01-16T00:32:15.987Z,10.48
2023-01-16T00:37:12.905Z,9.68
2023-01-16T00:42:09.840Z,8.98
2023-01-16T00:47:07.493Z,9.40
2023-01-16T00:52:04.939Z,8.88
2023-01-16T00:57:01.776Z,10.43
2023-01-16T01:01:58.683Z,9.30
2023-01-16T01:06:56.405Z,8.65
2023-01-16T01:11:53.238Z,8.93
2023-01-16T01:16:50.045Z,8.55
2023-01-16T01:21:46.999Z,6.90
2023-01-16T01:26:44.442Z,5.90
2023-01-16T01:31:41.290Z,7.60
2023-01-16T01:36:38.108Z,7.72
2023-01-16T01:41:34.866Z,6.68
2023-01-16T01:46:41.232Z,6.47
2023-01-16T01:51:42.958Z,7.18
2023-01-16T01:56:44.126Z,6.75
2023-01-16T02:01:41.645Z,6.93
2023-01-16T02:06:44.787Z,6.25
2023-01-16T02:11:49.277Z,7.55
2023-01-16T02:17:06.771Z,7.28
2023-01-16T02:22:36.758Z,6.15
2023-01-16T02:27:53.525Z,6.80
2023-01-16T02:33:05.155Z,7.65
2023-01-16T02:38:11.418Z,7.80
2023-01-16T02:43:21.026Z,7.85
2023-01-16T02:48:28.266Z,7.47
2023-01-16T02:53:30.011Z,7.22
2023-01-16T02:58:28.563Z,7.72
2023-01-16T03:03:38.605Z,7.15
2023-01-16T03:08:44.941Z,7.60
2023-01-16T03:13:56.043Z,7.78
2023-01-16T03:19:06.392Z,7.70
2023-01-16T03:24:08.823Z,7.72
2023-01-16T03:29:14.162Z,8.70
2023-01-16T03:34:23.365Z,9.70
2023-01-16T03:39:25.440Z,9.15
2023-01-16T03:44:29.167Z,7.95
2023-01-16T03:49:32.631Z,8.93
2023-01-16T03:54:38.106Z,8.85
2023-01-16T03:59:36.416Z,8.93
2023-01-16T04:04:41.327Z,8.52
2023-01-16T04:09:43.802Z,8.52
2023-01-16T04:14:42.829Z,9.65
2023-01-16T04:19:40.365Z,9.95
2023-01-16T04:24:37.352Z,11.48
2023-01-16T04:29:34.212Z,10.15
2023-01-16T04:34:30.995Z,9.63
2023-01-16T04:39:28.529Z,9.82
2023-01-16T04:44:25.916Z,11.68
2023-01-16T04:49:22.655Z,12.45
2023-01-16T04:54:20.725Z,11.88
2023-01-16T04:59:18.683Z,11.05
2023-01-16T05:04:16.649Z,10.90
2023-01-16T05:09:13.610Z,10.32
2023-01-16T05:14:11.264Z,11.02
2023-01-16T05:19:10.081Z,9.20
2023-01-16T05:24:07.255Z,11.10
2023-01-16T05:29:12.500Z,13.82
2023-01-16T05:34:10.589Z,10.48
2023-01-16T05:39:07.441Z,9.63
2023-01-16T05:44:05.379Z,8.65
2023-01-16T05:49:02.590Z,11.00
2023-01-16T05:54:00.163Z,9.45
2023-01-16T05:58:57.693Z,19.83
2023-01-16T06:03:54.720Z,21.98
2023-01-16T06:08:55.597Z,22.45
2023-01-16T06:13:53.235Z,19.30
2023-01-16T06:18:50.140Z,25.48
2023-01-16T06:23:46.968Z,23.90
2023-01-16T06:28:43.995Z,14.85
2023-01-16T06:33:41.444Z,9.32
2023-01-16T06:38:38.264Z,9.55
2023-01-16T06:43:35.237Z,9.00
2023-01-16T06:48:32.408Z,9.23
2023-01-16T06:53:30.332Z,9.35
2023-01-16T06:58:27.402Z,9.07
2023-01-16T07:03:25.139Z,8.30
2023-01-16T07:08:24.094Z,8.30
2023-01-16T07:13:27.378Z,8.40
2023-01-16T07:18:42.240Z,7.57
2023-01-16T07:23:42.766Z,7.50
2023-01-16T07:28:40.654Z,8.75
2023-01-16T07:33:37.598Z,7.13
2023-01-16T07:38:34.435Z,7.60
2023-01-16T07:43:31.320Z,7.40
2023-01-16T07:48:28.950Z,6.38
2023-01-16T07:53:27.488Z,7.22
2023-01-16T07:58:24.497Z,7.30
2023-01-16T08:03:21.620Z,6.85
2023-01-16T08:08:20.047Z,7.10
2023-01-16T08:13:16.909Z,7.03
2023-01-16T08:18:23.075Z,6.97
2023-01-16T08:23:25.817Z,7.30
2023-01-16T08:28:25.343Z,6.53
2023-01-16T08:33:22.170Z,6.68
2023-01-16T08:38:19.107Z,6.45
2023-01-16T08:43:43.180Z,6.68
2023-01-16T08:49:02.256Z,6.07
2023-01-16T08:54:02.006Z,6.90
2023-01-16T08:58:59.627Z,7.53
2023-01-16T09:03:56.481Z,11.75
2023-01-16T09:08:53.255Z,16.67
2023-01-16T09:13:50.621Z,18.95
2023-01-16T09:18:53.113Z,17.75
2023-01-16T09:23:53.268Z,17.67
2023-01-16T09:28:50.156Z,16.58
2023-01-16T09:33:48.921Z,20.30
2023-01-16T09:38:48.521Z,15.50
2023-01-16T09:43:50.421Z,15.90
2023-01-16T09:48:58.062Z,15.35
2023-01-16T09:54:20.884Z,16.23
2023-01-16T09:59:26.245Z,16.52
2023-01-16T10:04:28.313Z,12.77
2023-01-16T10:09:32.875Z,12.77
2023-01-16T10:15:03.481Z,15.27
2023-01-16T10:20:30.592Z,12.88
2023-01-16T10:25:32.686Z,14.93
2023-01-16T10:30:36.734Z,13.55
2023-01-16T10:35:42.961Z,12.82
2023-01-16T10:40:42.366Z,13.85
2023-01-16T10:45:58.120Z,15.02
2023-01-16T10:51:06.338Z,13.95
2023-01-16T10:56:04.883Z,12.52
2023-01-16T11:01:04.192Z,15.10
2023-01-16T11:06:12.968Z,16.77
2023-01-16T11:11:27.136Z,16.00
2023-01-16T11:16:49.478Z,15.10
2023-01-16T11:21:51.457Z,13.55
2023-01-16T11:26:53.703Z,12.50
2023-01-16T11:31:57.114Z,14.80
2023-01-16T11:36:55.674Z,13.30
2023-01-16T11:41:57.021Z,14.90
2023-01-16T11:46:59.099Z,14.50
2023-01-16T11:52:03.577Z,14.93
2023-01-16T11:57:21.526Z,17.20
2023-01-16T12:02:42.741Z,17.95
2023-01-16T12:07:54.442Z,18.90
2023-01-16T12:13:21.391Z,20.67
2023-01-16T12:18:29.455Z,21.13
2023-01-16T12:23:53.356Z,17.48
2023-01-16T12:29:07.049Z,15.63
2023-01-16T12:34:19.813Z,18.10
2023-01-16T12:39:27.189Z,19.05
2023-01-16T12:44:41.694Z,15.40
2023-01-16T12:49:56.735Z,16.30
2023-01-16T12:55:16.840Z,15.23
2023-01-16T13:00:18.145Z,19.95
2023-01-16T13:05:19.350Z,16.65
2023-01-16T13:10:41.556Z,30.83
2023-01-16T13:15:44.280Z,19.20
2023-01-16T13:20:42.868Z,23.40
2023-01-16T13:25:43.684Z,18.95
2023-01-16T13:30:45.213Z,15.25
2023-01-16T13:36:00.141Z,21.02
2023-01-16T13:41:19.907Z,21.38
2023-01-16T13:46:17.991Z,27.80
2023-01-16T13:51:23.078Z,26.65
2023-01-16T13:56:23.220Z,21.67
2023-01-16T14:01:32.528Z,20.02
2023-01-16T14:06:29.443Z,22.73
2023-01-16T14:11:34.772Z,23.70
2023-01-16T14:16:35.739Z,16.23
2023-01-16T14:21:42.509Z,20.08
2023-01-16T14:26:45.601Z,21.13
2023-01-16T14:31:45.607Z,17.08
2023-01-16T14:36:45.263Z,17.95
2023-01-16T14:42:00.219Z,19.73
2023-01-16T14:47:28.593Z,20.38
2023-01-16T14:53:05.995Z,16.83
2023-01-16T14:58:07.194Z,15.55
2023-01-16T15:03:09.129Z,14.70
2023-01-16T15:08:06.920Z,15.82
2023-01-16T15:13:21.447Z,15.07
2023-01-16T15:18:38.888Z,16.70
2023-01-16T15:23:37.782Z,18.63
2023-01-16T15:28:44.915Z,15.13
2023-01-16T15:33:45.661Z,18.40
2023-01-16T15:38:45.636Z,18.15
2023-01-16T15:44:06.807Z,17.63
2023-01-16T15:49:29.402Z,19.05
2023-01-16T15:54:27.310Z,26.10
2023-01-16T15:59:27.341Z,27.63
2023-01-16T16:04:24.552Z,20.77
2023-01-16T16:09:25.259Z,26.35
2023-01-16T16:14:46.255Z,26.23
2023-01-16T16:19:43.354Z,25.10
2023-01-16T16:24:41.007Z,24.52
2023-01-16T16:29:38.912Z,25.75
2023-01-16T16:34:36.965Z,24.67
2023-01-16T16:39:49.813Z,26.20
2023-01-16T16:45:09.319Z,22.90
2023-01-16T16:50:30.478Z,23.67
2023-01-16T16:55:30.445Z,23.48
2023-01-16T17:00:30.713Z,23.67
2023-01-16T17:05:28.472Z,23.42
2023-01-16T17:10:36.831Z,18.95
2023-01-16T17:15:34.466Z,20.08
2023-01-16T17:20:32.383Z,21.45
2023-01-16T17:25:29.458Z,21.30
2023-01-16T17:30:26.437Z,20.77
2023-01-16T17:35:24.102Z,22.38
2023-01-16T17:40:21.022Z,23.35
2023-01-16T17:45:45.686Z,24.85
2023-01-16T17:50:43.446Z,21.15
2023-01-16T17:55:56.055Z,22.58
2023-01-16T18:00:55.917Z,17.83
2023-01-16T18:05:55.363Z,20.98
2023-01-16T18:10:52.220Z,21.17
2023-01-16T18:16:07.173Z,23.02
2023-01-16T18:21:29.337Z,16.33
2023-01-16T18:26:26.910Z,24.85
2023-01-16T18:31:23.872Z,19.52
2023-01-16T18:36:24.504Z,27.80
2023-01-16T18:41:39.607Z,18.25
2023-01-16T18:46:54.736Z,17.33
2023-01-16T18:52:10.538Z,15.87
2023-01-16T18:57:30.890Z,15.45
2023-01-16T19:02:39.823Z,16.15
2023-01-16T19:07:44.453Z,14.30
2023-01-16T19:12:41.723Z,15.30
2023-01-16T19:17:38.594Z,13.45
2023-01-16T19:22:35.475Z,15.90
2023-01-16T19:27:36.239Z,12.98
2023-01-16T19:32:33.205Z,18.23
2023-01-16T19:37:30.127Z,16.83
2023-01-16T19:42:45.138Z,14.77
2023-01-16T19:47:42.780Z,29.45
2023-01-16T19:52:39.637Z,24.75
2023-01-16T19:57:36.496Z,13.07
2023-01-16T20:02:34.599Z,12.02
2023-01-16T20:07:32.286Z,15.63
2023-01-16T20:12:30.065Z,11.45
2023-01-16T20:17:40.663Z,13.02
2023-01-16T20:22:38.371Z,20.13
2023-01-16T20:27:36.038Z,20.33
2023-01-16T20:32:32.976Z,13.85
2023-01-16T20:37:30.871Z,18.17
2023-01-16T20:42:46.607Z,15.45
2023-01-16T20:47:43.393Z,17.48
2023-01-16T20:52:43.207Z,13.57
2023-01-16T20:57:40.760Z,12.45
2023-01-16T21:02:37.863Z,14.00
2023-01-16T21:07:34.984Z,12.18
2023-01-16T21:12:50.171Z,12.95
2023-01-16T21:18:05.774Z,13.23
2023-01-16T21:23:02.676Z,13.93
2023-01-16T21:28:00.877Z,15.32
2023-01-16T21:32:59.004Z,19.02
2023-01-16T21:37:55.948Z,18.17
2023-01-16T21:43:11.173Z,19.50
2023-01-16T21:48:11.178Z,18.90
2023-01-16T21:53:08.092Z,19.23
2023-01-16T21:58:05.045Z,21.15
2023-01-16T22:03:04.046Z,19.65
2023-01-16T22:08:01.584Z,18.63
2023-01-16T22:13:21.668Z,18.67
2023-01-16T22:18:21.348Z,17.88
2023-01-16T22:23:21.951Z,17.88
2023-01-16T22:28:20.481Z,16.73
2023-01-16T22:33:18.074Z,16.55
2023-01-16T22:38:14.953Z,16.25
2023-01-16T22:43:30.550Z,17.52
2023-01-16T22:48:27.581Z,17.52
2023-01-16T22:53:24.374Z,15.45
2023-01-16T22:58:23.237Z,17.00
2023-01-16T23:03:21.408Z,16.92
2023-01-16T23:08:20.388Z,18.77
2023-01-16T23:13:17.370Z,21.60
2023-01-16T23:18:15.075Z,19.23
2023-01-16T23:23:12.787Z,21.90
2023-01-16T23:28:09.712Z,20.77
2023-01-16T23:33:08.926Z,21.02
2023-01-16T23:38:06.547Z,20.58
2023-01-16T23:43:23.361Z,21.58
2023-01-16T23:48:20.705Z,21.60
2023-01-16T23:53:18.396Z,21.40
2023-01-16T23:58:15.306Z,22.52
